sensor_id;sensor_type;location;lat;lon;timestamp;temperature;humidity
46139;DHT22;32398;49.112;8.598;2023-06-10T00:01:56;24.90;50.90
46139;DHT22;32398;49.112;8.598;2023-06-10T00:04:25;24.80;50.90
46139;DHT22;32398;49.112;8.598;2023-06-10T00:06:52;24.80;50.90
46139;DHT22;32398;49.112;8.598;2023-06-10T00:09:19;24.70;51.00
46139;DHT22;32398;49.112;8.598;2023-06-10T00:11:46;24.70;51.20
46139;DHT22;32398;49.112;8.598;2023-06-10T00:14:14;24.60;51.30
46139;DHT22;32398;49.112;8.598;2023-06-10T00:16:41;24.60;51.30
46139;DHT22;32398;49.112;8.598;2023-06-10T00:19:10;24.50;51.30
46139;DHT22;32398;49.112;8.598;2023-06-10T00:21:39;24.50;51.30
46139;DHT22;32398;49.112;8.598;2023-06-10T00:24:06;24.50;51.30
46139;DHT22;32398;49.112;8.598;2023-06-10T00:26:32;24.40;51.40
46139;DHT22;32398;49.112;8.598;2023-06-10T00:28:59;24.40;51.60
46139;DHT22;32398;49.112;8.598;2023-06-10T00:31:27;24.40;51.70
46139;DHT22;32398;49.112;8.598;2023-06-10T00:33:53;24.30;51.80
46139;DHT22;32398;49.112;8.598;2023-06-10T00:36:20;24.30;51.80
46139;DHT22;32398;49.112;8.598;2023-06-10T00:38:46;24.20;51.70
46139;DHT22;32398;49.112;8.598;2023-06-10T00:41:13;24.20;51.90
46139;DHT22;32398;49.112;8.598;2023-06-10T00:43:40;24.10;51.90
46139;DHT22;32398;49.112;8.598;2023-06-10T00:46:06;24.10;52.00
46139;DHT22;32398;49.112;8.598;2023-06-10T00:48:34;24.10;52.10
46139;DHT22;32398;49.112;8.598;2023-06-10T00:51:01;24.00;52.10
46139;DHT22;32398;49.112;8.598;2023-06-10T00:53:27;24.00;52.20
46139;DHT22;32398;49.112;8.598;2023-06-10T00:55:54;23.90;52.20
46139;DHT22;32398;49.112;8.598;2023-06-10T00:58:21;23.90;52.20
46139;DHT22;32398;49.112;8.598;2023-06-10T01:00:48;23.90;52.30
46139;DHT22;32398;49.112;8.598;2023-06-10T01:03:15;23.80;52.30
46139;DHT22;32398;49.112;8.598;2023-06-10T01:05:43;23.80;53.00
46139;DHT22;32398;49.112;8.598;2023-06-10T01:08:16;23.80;52.50
46139;DHT22;32398;49.112;8.598;2023-06-10T01:10:47;23.70;52.60
46139;DHT22;32398;49.112;8.598;2023-06-10T01:13:15;23.60;52.60
46139;DHT22;32398;49.112;8.598;2023-06-10T01:15:42;23.60;52.70
46139;DHT22;32398;49.112;8.598;2023-06-10T01:18:09;23.60;52.80
46139;DHT22;32398;49.112;8.598;2023-06-10T01:20:41;23.60;52.90
46139;DHT22;32398;49.112;8.598;2023-06-10T01:23:10;23.50;52.80
46139;DHT22;32398;49.112;8.598;2023-06-10T01:25:37;23.40;52.90
46139;DHT22;32398;49.112;8.598;2023-06-10T01:28:04;23.50;53.00
46139;DHT22;32398;49.112;8.598;2023-06-10T01:30:36;23.40;53.10
46139;DHT22;32398;49.112;8.598;2023-06-10T01:33:03;23.40;53.10
46139;DHT22;32398;49.112;8.598;2023-06-10T01:35:31;23.30;53.10
46139;DHT22;32398;49.112;8.598;2023-06-10T01:37:58;23.30;53.30
46139;DHT22;32398;49.112;8.598;2023-06-10T01:40:26;23.20;53.30
46139;DHT22;32398;49.112;8.598;2023-06-10T01:42:52;23.20;53.30
46139;DHT22;32398;49.112;8.598;2023-06-10T01:45:19;23.10;53.40
46139;DHT22;32398;49.112;8.598;2023-06-10T01:47:46;23.10;53.50
46139;DHT22;32398;49.112;8.598;2023-06-10T01:50:12;23.10;53.60
46139;DHT22;32398;49.112;8.598;2023-06-10T01:52:39;23.10;53.60
46139;DHT22;32398;49.112;8.598;2023-06-10T01:55:06;23.00;53.80
46139;DHT22;32398;49.112;8.598;2023-06-10T01:57:34;23.00;53.80
46139;DHT22;32398;49.112;8.598;2023-06-10T02:00:00;22.90;53.90
46139;DHT22;32398;49.112;8.598;2023-06-10T02:02:28;22.90;53.90
46139;DHT22;32398;49.112;8.598;2023-06-10T02:04:55;22.80;54.00
46139;DHT22;32398;49.112;8.598;2023-06-10T02:07:22;22.80;54.10
46139;DHT22;32398;49.112;8.598;2023-06-10T02:09:48;22.70;54.10
46139;DHT22;32398;49.112;8.598;2023-06-10T02:12:15;22.70;54.20
46139;DHT22;32398;49.112;8.598;2023-06-10T02:14:43;22.70;54.20
46139;DHT22;32398;49.112;8.598;2023-06-10T02:17:09;22.60;54.20
46139;DHT22;32398;49.112;8.598;2023-06-10T02:19:37;22.60;54.30
46139;DHT22;32398;49.112;8.598;2023-06-10T02:22:07;22.60;54.50
46139;DHT22;32398;49.112;8.598;2023-06-10T02:24:35;22.50;54.50
46139;DHT22;32398;49.112;8.598;2023-06-10T02:27:01;22.50;54.50
46139;DHT22;32398;49.112;8.598;2023-06-10T02:29:29;22.50;54.60
46139;DHT22;32398;49.112;8.598;2023-06-10T02:31:56;22.40;54.60
46139;DHT22;32398;49.112;8.598;2023-06-10T02:34:23;22.40;54.80
46139;DHT22;32398;49.112;8.598;2023-06-10T02:36:49;22.40;54.80
46139;DHT22;32398;49.112;8.598;2023-06-10T02:39:16;22.30;54.80
46139;DHT22;32398;49.112;8.598;2023-06-10T02:41:43;22.30;55.00
46139;DHT22;32398;49.112;8.598;2023-06-10T02:44:09;22.20;54.90
46139;DHT22;32398;49.112;8.598;2023-06-10T02:46:36;22.20;54.90
46139;DHT22;32398;49.112;8.598;2023-06-10T02:49:04;22.20;55.00
46139;DHT22;32398;49.112;8.598;2023-06-10T02:51:30;22.20;55.00
46139;DHT22;32398;49.112;8.598;2023-06-10T02:53:57;22.10;55.00
46139;DHT22;32398;49.112;8.598;2023-06-10T02:56:23;22.10;55.10
46139;DHT22;32398;49.112;8.598;2023-06-10T02:58:51;22.10;55.10
46139;DHT22;32398;49.112;8.598;2023-06-10T03:01:17;22.10;55.20
46139;DHT22;32398;49.112;8.598;2023-06-10T03:03:44;22.00;55.20
46139;DHT22;32398;49.112;8.598;2023-06-10T03:06:13;22.00;55.30
46139;DHT22;32398;49.112;8.598;2023-06-10T03:08:40;22.00;55.30
46139;DHT22;32398;49.112;8.598;2023-06-10T03:11:06;21.90;55.40
46139;DHT22;32398;49.112;8.598;2023-06-10T03:13:33;21.90;55.40
46139;DHT22;32398;49.112;8.598;2023-06-10T03:15:59;21.90;55.40
46139;DHT22;32398;49.112;8.598;2023-06-10T03:18:26;21.90;55.50
46139;DHT22;32398;49.112;8.598;2023-06-10T03:20:53;21.80;55.50
46139;DHT22;32398;49.112;8.598;2023-06-10T03:23:21;21.80;55.60
46139;DHT22;32398;49.112;8.598;2023-06-10T03:25:48;21.70;55.50
46139;DHT22;32398;49.112;8.598;2023-06-10T03:28:14;21.70;55.60
46139;DHT22;32398;49.112;8.598;2023-06-10T03:30:41;21.70;55.70
46139;DHT22;32398;49.112;8.598;2023-06-10T03:33:07;21.70;55.70
46139;DHT22;32398;49.112;8.598;2023-06-10T03:35:34;21.60;55.80
46139;DHT22;32398;49.112;8.598;2023-06-10T03:38:01;21.60;55.90
46139;DHT22;32398;49.112;8.598;2023-06-10T03:40:29;21.60;55.90
46139;DHT22;32398;49.112;8.598;2023-06-10T03:42:57;21.50;55.90
46139;DHT22;32398;49.112;8.598;2023-06-10T03:45:23;21.50;55.90
46139;DHT22;32398;49.112;8.598;2023-06-10T03:47:50;21.50;56.00
46139;DHT22;32398;49.112;8.598;2023-06-10T03:50:17;21.50;56.00
46139;DHT22;32398;49.112;8.598;2023-06-10T03:52:44;21.40;56.10
46139;DHT22;32398;49.112;8.598;2023-06-10T03:55:11;21.40;56.10
46139;DHT22;32398;49.112;8.598;2023-06-10T03:57:40;21.40;56.20
46139;DHT22;32398;49.112;8.598;2023-06-10T04:00:07;21.30;56.20
46139;DHT22;32398;49.112;8.598;2023-06-10T04:02:36;21.30;56.30
46139;DHT22;32398;49.112;8.598;2023-06-10T04:05:03;21.30;56.30
46139;DHT22;32398;49.112;8.598;2023-06-10T04:07:30;21.30;56.40
46139;DHT22;32398;49.112;8.598;2023-06-10T04:09:57;21.20;56.40
46139;DHT22;32398;49.112;8.598;2023-06-10T04:12:24;21.20;56.50
46139;DHT22;32398;49.112;8.598;2023-06-10T04:14:52;21.20;56.60
46139;DHT22;32398;49.112;8.598;2023-06-10T04:17:18;21.10;56.50
46139;DHT22;32398;49.112;8.598;2023-06-10T04:19:45;21.10;56.60
46139;DHT22;32398;49.112;8.598;2023-06-10T04:22:12;21.10;56.70
46139;DHT22;32398;49.112;8.598;2023-06-10T04:24:38;21.10;56.70
46139;DHT22;32398;49.112;8.598;2023-06-10T04:27:05;21.10;56.80
46139;DHT22;32398;49.112;8.598;2023-06-10T04:29:32;21.00;56.80
46139;DHT22;32398;49.112;8.598;2023-06-10T04:31:59;21.00;56.90
46139;DHT22;32398;49.112;8.598;2023-06-10T04:34:27;21.00;57.00
46139;DHT22;32398;49.112;8.598;2023-06-10T04:36:53;21.00;57.00
46139;DHT22;32398;49.112;8.598;2023-06-10T04:39:20;20.90;57.00
46139;DHT22;32398;49.112;8.598;2023-06-10T04:41:47;20.90;57.10
46139;DHT22;32398;49.112;8.598;2023-06-10T04:44:14;20.90;57.20
46139;DHT22;32398;49.112;8.598;2023-06-10T04:46:41;20.90;57.30
46139;DHT22;32398;49.112;8.598;2023-06-10T04:49:09;20.90;57.40
46139;DHT22;32398;49.112;8.598;2023-06-10T04:51:35;20.80;57.40
46139;DHT22;32398;49.112;8.598;2023-06-10T04:54:03;20.80;57.50
46139;DHT22;32398;49.112;8.598;2023-06-10T04:56:29;20.80;57.50
46139;DHT22;32398;49.112;8.598;2023-06-10T04:58:56;20.80;57.60
46139;DHT22;32398;49.112;8.598;2023-06-10T05:01:23;20.80;57.70
46139;DHT22;32398;49.112;8.598;2023-06-10T05:03:49;20.80;57.80
46139;DHT22;32398;49.112;8.598;2023-06-10T05:06:17;20.80;57.90
46139;DHT22;32398;49.112;8.598;2023-06-10T05:08:44;20.70;58.00
46139;DHT22;32398;49.112;8.598;2023-06-10T05:11:10;20.70;58.10
46139;DHT22;32398;49.112;8.598;2023-06-10T05:13:37;20.70;58.20
46139;DHT22;32398;49.112;8.598;2023-06-10T05:16:05;20.70;58.20
46139;DHT22;32398;49.112;8.598;2023-06-10T05:18:32;20.70;58.30
46139;DHT22;32398;49.112;8.598;2023-06-10T05:20:59;20.70;58.30
46139;DHT22;32398;49.112;8.598;2023-06-10T05:23:27;20.60;58.30
46139;DHT22;32398;49.112;8.598;2023-06-10T05:25:53;20.70;58.50
46139;DHT22;32398;49.112;8.598;2023-06-10T05:28:20;20.70;58.50
46139;DHT22;32398;49.112;8.598;2023-06-10T05:30:47;20.60;58.40
46139;DHT22;32398;49.112;8.598;2023-06-10T05:33:13;20.70;58.50
46139;DHT22;32398;49.112;8.598;2023-06-10T05:35:40;20.60;58.50
46139;DHT22;32398;49.112;8.598;2023-06-10T05:38:06;20.60;58.50
46139;DHT22;32398;49.112;8.598;2023-06-10T05:40:34;20.70;58.50
46139;DHT22;32398;49.112;8.598;2023-06-10T05:43:01;20.70;58.50
46139;DHT22;32398;49.112;8.598;2023-06-10T05:45:27;20.70;58.50
46139;DHT22;32398;49.112;8.598;2023-06-10T05:47:54;20.70;58.60
46139;DHT22;32398;49.112;8.598;2023-06-10T05:50:21;20.70;58.60
46139;DHT22;32398;49.112;8.598;2023-06-10T05:52:47;20.70;58.60
46139;DHT22;32398;49.112;8.598;2023-06-10T05:55:14;20.70;58.60
46139;DHT22;32398;49.112;8.598;2023-06-10T05:57:42;20.70;58.70
46139;DHT22;32398;49.112;8.598;2023-06-10T06:00:09;20.70;58.70
46139;DHT22;32398;49.112;8.598;2023-06-10T06:02:35;20.70;58.70
46139;DHT22;32398;49.112;8.598;2023-06-10T06:05:02;20.70;58.70
46139;DHT22;32398;49.112;8.598;2023-06-10T06:07:29;20.80;58.70
46139;DHT22;32398;49.112;8.598;2023-06-10T06:09:56;20.70;58.70
46139;DHT22;32398;49.112;8.598;2023-06-10T06:12:24;20.80;58.70
46139;DHT22;32398;49.112;8.598;2023-06-10T06:14:51;20.80;58.80
46139;DHT22;32398;49.112;8.598;2023-06-10T06:17:18;20.80;58.80
46139;DHT22;32398;49.112;8.598;2023-06-10T06:19:45;20.70;58.80
46139;DHT22;32398;49.112;8.598;2023-06-10T06:22:13;20.80;58.70
46139;DHT22;32398;49.112;8.598;2023-06-10T06:24:39;20.80;58.70
46139;DHT22;32398;49.112;8.598;2023-06-10T06:27:06;20.80;58.80
46139;DHT22;32398;49.112;8.598;2023-06-10T06:29:32;20.90;58.80
46139;DHT22;32398;49.112;8.598;2023-06-10T06:32:00;20.90;59.40
46139;DHT22;32398;49.112;8.598;2023-06-10T06:34:27;20.90;60.00
46139;DHT22;32398;49.112;8.598;2023-06-10T06:36:53;20.90;60.00
46139;DHT22;32398;49.112;8.598;2023-06-10T06:39:20;20.80;60.10
46139;DHT22;32398;49.112;8.598;2023-06-10T06:41:46;20.80;60.20
46139;DHT22;32398;49.112;8.598;2023-06-10T06:44:13;20.80;60.30
46139;DHT22;32398;49.112;8.598;2023-06-10T06:46:39;20.90;60.40
46139;DHT22;32398;49.112;8.598;2023-06-10T06:49:07;20.80;60.50
46139;DHT22;32398;49.112;8.598;2023-06-10T06:51:34;20.90;60.60
46139;DHT22;32398;49.112;8.598;2023-06-10T06:54:00;20.90;60.70
46139;DHT22;32398;49.112;8.598;2023-06-10T06:56:27;20.90;60.80
46139;DHT22;32398;49.112;8.598;2023-06-10T06:58:53;20.90;60.80
46139;DHT22;32398;49.112;8.598;2023-06-10T07:01:20;20.90;60.80
46139;DHT22;32398;49.112;8.598;2023-06-10T07:03:46;21.00;62.00
46139;DHT22;32398;49.112;8.598;2023-06-10T07:06:14;21.10;61.70
46139;DHT22;32398;49.112;8.598;2023-06-10T07:08:41;21.20;61.60
46139;DHT22;32398;49.112;8.598;2023-06-10T07:11:07;21.20;61.30
46139;DHT22;32398;49.112;8.598;2023-06-10T07:13:34;21.30;61.00
46139;DHT22;32398;49.112;8.598;2023-06-10T07:16:01;21.30;60.70
46139;DHT22;32398;49.112;8.598;2023-06-10T07:18:27;21.40;60.50
46139;DHT22;32398;49.112;8.598;2023-06-10T07:20:54;21.50;60.40
46139;DHT22;32398;49.112;8.598;2023-06-10T07:23:21;21.50;60.10
46139;DHT22;32398;49.112;8.598;2023-06-10T07:25:48;21.60;60.10
46139;DHT22;32398;49.112;8.598;2023-06-10T07:28:14;21.60;59.90
46139;DHT22;32398;49.112;8.598;2023-06-10T07:30:41;21.60;59.90
46139;DHT22;32398;49.112;8.598;2023-06-10T07:33:07;21.70;59.80
46139;DHT22;32398;49.112;8.598;2023-06-10T07:35:35;21.70;59.70
46139;DHT22;32398;49.112;8.598;2023-06-10T07:38:02;21.80;59.60
46139;DHT22;32398;49.112;8.598;2023-06-10T07:40:30;21.80;59.60
46139;DHT22;32398;49.112;8.598;2023-06-10T07:42:56;21.90;59.50
46139;DHT22;32398;49.112;8.598;2023-06-10T07:45:23;21.90;59.50
46139;DHT22;32398;49.112;8.598;2023-06-10T07:47:50;22.00;59.50
46139;DHT22;32398;49.112;8.598;2023-06-10T07:50:17;22.00;59.50
46139;DHT22;32398;49.112;8.598;2023-06-10T07:52:43;22.00;59.40
46139;DHT22;32398;49.112;8.598;2023-06-10T07:55:10;22.00;59.30
46139;DHT22;32398;49.112;8.598;2023-06-10T07:57:38;22.10;59.30
46139;DHT22;32398;49.112;8.598;2023-06-10T08:00:05;22.10;59.20
46139;DHT22;32398;49.112;8.598;2023-06-10T08:02:32;22.10;59.20
46139;DHT22;32398;49.112;8.598;2023-06-10T08:04:58;22.20;59.20
46139;DHT22;32398;49.112;8.598;2023-06-10T08:07:25;22.20;59.10
46139;DHT22;32398;49.112;8.598;2023-06-10T08:09:51;22.30;59.10
46139;DHT22;32398;49.112;8.598;2023-06-10T08:12:18;22.30;59.20
46139;DHT22;32398;49.112;8.598;2023-06-10T08:14:46;22.30;59.10
46139;DHT22;32398;49.112;8.598;2023-06-10T08:17:13;22.40;59.00
46139;DHT22;32398;49.112;8.598;2023-06-10T08:19:39;22.40;58.90
46139;DHT22;32398;49.112;8.598;2023-06-10T08:22:06;22.40;58.90
46139;DHT22;32398;49.112;8.598;2023-06-10T08:24:32;22.40;58.90
46139;DHT22;32398;49.112;8.598;2023-06-10T08:26:59;22.50;59.10
46139;DHT22;32398;49.112;8.598;2023-06-10T08:29:25;22.50;59.00
46139;DHT22;32398;49.112;8.598;2023-06-10T08:31:53;22.60;58.80
46139;DHT22;32398;49.112;8.598;2023-06-10T08:34:20;22.60;58.70
46139;DHT22;32398;49.112;8.598;2023-06-10T08:36:46;22.60;58.70
46139;DHT22;32398;49.112;8.598;2023-06-10T08:39:18;22.60;58.70
46139;DHT22;32398;49.112;8.598;2023-06-10T08:41:46;22.70;58.60
46139;DHT22;32398;49.112;8.598;2023-06-10T08:44:16;22.70;58.60
46139;DHT22;32398;49.112;8.598;2023-06-10T08:46:44;22.80;58.60
46139;DHT22;32398;49.112;8.598;2023-06-10T08:49:14;22.80;58.50
46139;DHT22;32398;49.112;8.598;2023-06-10T08:51:43;22.80;58.40
46139;DHT22;32398;49.112;8.598;2023-06-10T08:54:11;22.90;58.60
46139;DHT22;32398;49.112;8.598;2023-06-10T08:56:40;22.90;58.50
46139;DHT22;32398;49.112;8.598;2023-06-10T08:59:07;22.90;58.30
46139;DHT22;32398;49.112;8.598;2023-06-10T09:01:34;23.00;58.30
46139;DHT22;32398;49.112;8.598;2023-06-10T09:04:00;23.00;58.30
46139;DHT22;32398;49.112;8.598;2023-06-10T09:06:29;23.10;58.30
46139;DHT22;32398;49.112;8.598;2023-06-10T09:08:57;23.10;58.20
46139;DHT22;32398;49.112;8.598;2023-06-10T09:11:24;23.10;58.10
46139;DHT22;32398;49.112;8.598;2023-06-10T09:13:52;23.20;58.00
46139;DHT22;32398;49.112;8.598;2023-06-10T09:16:18;23.20;58.00
46139;DHT22;32398;49.112;8.598;2023-06-10T09:18:45;23.20;58.00
46139;DHT22;32398;49.112;8.598;2023-06-10T09:21:11;23.30;57.90
46139;DHT22;32398;49.112;8.598;2023-06-10T09:23:39;23.30;57.90
46139;DHT22;32398;49.112;8.598;2023-06-10T09:26:08;23.40;57.80
46139;DHT22;32398;49.112;8.598;2023-06-10T09:28:35;23.40;57.80
46139;DHT22;32398;49.112;8.598;2023-06-10T09:31:02;23.50;57.70
46139;DHT22;32398;49.112;8.598;2023-06-10T09:33:29;23.50;57.70
46139;DHT22;32398;49.112;8.598;2023-06-10T09:35:56;23.60;57.50
46139;DHT22;32398;49.112;8.598;2023-06-10T09:38:29;23.60;57.30
46139;DHT22;32398;49.112;8.598;2023-06-10T09:40:57;23.60;57.30
46139;DHT22;32398;49.112;8.598;2023-06-10T09:43:26;23.80;57.30
46139;DHT22;32398;49.112;8.598;2023-06-10T09:46:04;23.80;57.10
46139;DHT22;32398;49.112;8.598;2023-06-10T09:48:34;23.80;57.00
46139;DHT22;32398;49.112;8.598;2023-06-10T09:51:00;23.90;57.00
46139;DHT22;32398;49.112;8.598;2023-06-10T09:53:27;24.00;56.90
46139;DHT22;32398;49.112;8.598;2023-06-10T09:55:57;24.00;56.90
46139;DHT22;32398;49.112;8.598;2023-06-10T09:58:33;24.10;56.70
46139;DHT22;32398;49.112;8.598;2023-06-10T10:00:59;24.10;56.50
46139;DHT22;32398;49.112;8.598;2023-06-10T10:03:30;24.20;56.40
46139;DHT22;32398;49.112;8.598;2023-06-10T10:05:57;24.30;56.20
46139;DHT22;32398;49.112;8.598;2023-06-10T10:08:24;24.30;55.90
46139;DHT22;32398;49.112;8.598;2023-06-10T10:10:51;24.40;55.70
46139;DHT22;32398;49.112;8.598;2023-06-10T10:13:18;24.50;55.70
46139;DHT22;32398;49.112;8.598;2023-06-10T10:15:45;24.50;55.50
46139;DHT22;32398;49.112;8.598;2023-06-10T10:18:13;24.60;55.40
46139;DHT22;32398;49.112;8.598;2023-06-10T10:20:47;24.70;55.40
46139;DHT22;32398;49.112;8.598;2023-06-10T10:23:18;24.70;55.30
46139;DHT22;32398;49.112;8.598;2023-06-10T10:25:50;24.80;55.10
46139;DHT22;32398;49.112;8.598;2023-06-10T10:28:19;24.90;55.00
46139;DHT22;32398;49.112;8.598;2023-06-10T10:30:48;25.00;54.90
46139;DHT22;32398;49.112;8.598;2023-06-10T10:33:16;25.00;54.70
46139;DHT22;32398;49.112;8.598;2023-06-10T10:35:45;25.10;54.50
46139;DHT22;32398;49.112;8.598;2023-06-10T10:38:12;25.20;54.30
46139;DHT22;32398;49.112;8.598;2023-06-10T10:40:38;25.30;54.10
46139;DHT22;32398;49.112;8.598;2023-06-10T10:43:05;25.30;54.00
46139;DHT22;32398;49.112;8.598;2023-06-10T10:45:34;25.40;54.00
46139;DHT22;32398;49.112;8.598;2023-06-10T10:48:04;25.50;53.80
46139;DHT22;32398;49.112;8.598;2023-06-10T10:50:31;25.50;53.70
46139;DHT22;32398;49.112;8.598;2023-06-10T10:53:00;25.60;53.40
46139;DHT22;32398;49.112;8.598;2023-06-10T10:55:27;25.60;53.20
46139;DHT22;32398;49.112;8.598;2023-06-10T10:57:54;25.80;53.10
46139;DHT22;32398;49.112;8.598;2023-06-10T11:00:26;25.80;52.90
46139;DHT22;32398;49.112;8.598;2023-06-10T11:02:55;25.90;52.90
46139;DHT22;32398;49.112;8.598;2023-06-10T11:05:30;26.00;52.70
46139;DHT22;32398;49.112;8.598;2023-06-10T11:07:57;26.00;52.50
46139;DHT22;32398;49.112;8.598;2023-06-10T11:10:28;26.10;52.30
46139;DHT22;32398;49.112;8.598;2023-06-10T11:12:55;26.10;52.20
46139;DHT22;32398;49.112;8.598;2023-06-10T11:15:23;26.20;52.10
46139;DHT22;32398;49.112;8.598;2023-06-10T11:18:10;26.30;51.90
46139;DHT22;32398;49.112;8.598;2023-06-10T11:20:59;26.30;51.90
46139;DHT22;32398;49.112;8.598;2023-06-10T11:23:38;26.40;51.70
46139;DHT22;32398;49.112;8.598;2023-06-10T11:26:14;26.50;51.60
46139;DHT22;32398;49.112;8.598;2023-06-10T11:28:41;26.50;51.40
46139;DHT22;32398;49.112;8.598;2023-06-10T11:31:09;26.60;51.30
46139;DHT22;32398;49.112;8.598;2023-06-10T11:33:37;26.70;51.20
46139;DHT22;32398;49.112;8.598;2023-06-10T11:36:06;26.70;51.10
46139;DHT22;32398;49.112;8.598;2023-06-10T11:38:32;26.80;51.00
46139;DHT22;32398;49.112;8.598;2023-06-10T11:40:59;26.90;50.90
46139;DHT22;32398;49.112;8.598;2023-06-10T11:43:27;26.90;50.50
46139;DHT22;32398;49.112;8.598;2023-06-10T11:45:54;27.00;50.50
46139;DHT22;32398;49.112;8.598;2023-06-10T11:48:22;27.10;50.40
46139;DHT22;32398;49.112;8.598;2023-06-10T11:50:49;27.10;50.30
46139;DHT22;32398;49.112;8.598;2023-06-10T11:53:18;27.10;50.20
46139;DHT22;32398;49.112;8.598;2023-06-10T11:55:45;27.20;50.10
46139;DHT22;32398;49.112;8.598;2023-06-10T11:58:13;27.30;50.00
46139;DHT22;32398;49.112;8.598;2023-06-10T12:00:43;27.30;49.80
46139;DHT22;32398;49.112;8.598;2023-06-10T12:03:10;27.40;49.60
46139;DHT22;32398;49.112;8.598;2023-06-10T12:05:36;27.40;49.40
46139;DHT22;32398;49.112;8.598;2023-06-10T12:08:10;27.50;49.20
46139;DHT22;32398;49.112;8.598;2023-06-10T12:10:40;27.50;48.80
46139;DHT22;32398;49.112;8.598;2023-06-10T12:13:07;27.60;48.50
46139;DHT22;32398;49.112;8.598;2023-06-10T12:15:34;27.60;48.30
46139;DHT22;32398;49.112;8.598;2023-06-10T12:18:01;27.70;48.20
46139;DHT22;32398;49.112;8.598;2023-06-10T12:20:28;27.80;48.10
46139;DHT22;32398;49.112;8.598;2023-06-10T12:22:55;27.80;47.90
46139;DHT22;32398;49.112;8.598;2023-06-10T12:25:25;27.90;47.80
46139;DHT22;32398;49.112;8.598;2023-06-10T12:27:52;27.90;47.70
46139;DHT22;32398;49.112;8.598;2023-06-10T12:30:19;28.00;47.40
46139;DHT22;32398;49.112;8.598;2023-06-10T12:32:46;28.00;47.20
46139;DHT22;32398;49.112;8.598;2023-06-10T12:35:15;28.10;47.10
46139;DHT22;32398;49.112;8.598;2023-06-10T12:37:43;28.10;47.10
46139;DHT22;32398;49.112;8.598;2023-06-10T12:40:26;28.20;47.10
46139;DHT22;32398;49.112;8.598;2023-06-10T12:42:53;28.30;47.10
46139;DHT22;32398;49.112;8.598;2023-06-10T12:45:25;28.30;46.90
46139;DHT22;32398;49.112;8.598;2023-06-10T12:48:03;28.40;47.00
46139;DHT22;32398;49.112;8.598;2023-06-10T12:50:30;28.40;46.70
46139;DHT22;32398;49.112;8.598;2023-06-10T12:52:56;28.50;46.60
46139;DHT22;32398;49.112;8.598;2023-06-10T12:55:23;28.70;44.70
46139;DHT22;32398;49.112;8.598;2023-06-10T12:57:51;29.40;41.80
46139;DHT22;32398;49.112;8.598;2023-06-10T13:00:18;29.50;41.80
46139;DHT22;32398;49.112;8.598;2023-06-10T13:02:45;29.40;42.00
46139;DHT22;32398;49.112;8.598;2023-06-10T13:05:11;29.40;42.40
46139;DHT22;32398;49.112;8.598;2023-06-10T13:07:38;29.20;42.70
46139;DHT22;32398;49.112;8.598;2023-06-10T13:10:05;29.20;43.30
46139;DHT22;32398;49.112;8.598;2023-06-10T13:12:31;29.10;43.60
46139;DHT22;32398;49.112;8.598;2023-06-10T13:14:59;29.10;43.90
46139;DHT22;32398;49.112;8.598;2023-06-10T13:17:26;29.10;44.30
46139;DHT22;32398;49.112;8.598;2023-06-10T13:19:53;29.10;44.30
46139;DHT22;32398;49.112;8.598;2023-06-10T13:22:19;29.10;44.00
46139;DHT22;32398;49.112;8.598;2023-06-10T13:24:46;29.10;44.20
46139;DHT22;32398;49.112;8.598;2023-06-10T13:27:13;29.10;44.10
46139;DHT22;32398;49.112;8.598;2023-06-10T13:29:40;29.10;44.10
46139;DHT22;32398;49.112;8.598;2023-06-10T13:32:08;29.20;44.20
46139;DHT22;32398;49.112;8.598;2023-06-10T13:34:35;29.20;44.20
46139;DHT22;32398;49.112;8.598;2023-06-10T13:37:02;29.20;44.60
46139;DHT22;32398;49.112;8.598;2023-06-10T13:39:29;29.20;44.60
46139;DHT22;32398;49.112;8.598;2023-06-10T13:41:55;29.30;44.40
46139;DHT22;32398;49.112;8.598;2023-06-10T13:44:22;29.30;44.40
46139;DHT22;32398;49.112;8.598;2023-06-10T13:46:48;29.30;44.40
46139;DHT22;32398;49.112;8.598;2023-06-10T13:49:16;29.30;44.50
46139;DHT22;32398;49.112;8.598;2023-06-10T13:51:43;29.40;44.40
46139;DHT22;32398;49.112;8.598;2023-06-10T13:54:09;29.40;44.40
46139;DHT22;32398;49.112;8.598;2023-06-10T13:56:37;29.50;44.30
46139;DHT22;32398;49.112;8.598;2023-06-10T13:59:04;29.50;44.20
46139;DHT22;32398;49.112;8.598;2023-06-10T14:01:30;29.60;44.90
46139;DHT22;32398;49.112;8.598;2023-06-10T14:03:57;29.60;44.10
46139;DHT22;32398;49.112;8.598;2023-06-10T14:06:25;29.70;44.30
46139;DHT22;32398;49.112;8.598;2023-06-10T14:08:52;29.80;44.20
46139;DHT22;32398;49.112;8.598;2023-06-10T14:11:19;29.80;44.40
46139;DHT22;32398;49.112;8.598;2023-06-10T14:13:46;29.90;44.10
46139;DHT22;32398;49.112;8.598;2023-06-10T14:16:12;29.90;43.80
46139;DHT22;32398;49.112;8.598;2023-06-10T14:18:39;29.90;43.30
46139;DHT22;32398;49.112;8.598;2023-06-10T14:21:05;30.00;43.50
46139;DHT22;32398;49.112;8.598;2023-06-10T14:23:33;30.00;43.70
46139;DHT22;32398;49.112;8.598;2023-06-10T14:26:00;30.10;43.40
46139;DHT22;32398;49.112;8.598;2023-06-10T14:28:28;30.10;43.10
46139;DHT22;32398;49.112;8.598;2023-06-10T14:30:54;30.20;43.20
46139;DHT22;32398;49.112;8.598;2023-06-10T14:33:23;30.30;43.30
46139;DHT22;32398;49.112;8.598;2023-06-10T14:35:49;30.30;43.10
46139;DHT22;32398;49.112;8.598;2023-06-10T14:38:16;30.40;42.90
46139;DHT22;32398;49.112;8.598;2023-06-10T14:40:43;30.40;42.90
46139;DHT22;32398;49.112;8.598;2023-06-10T14:43:10;30.40;42.70
46139;DHT22;32398;49.112;8.598;2023-06-10T14:45:36;30.50;42.50
46139;DHT22;32398;49.112;8.598;2023-06-10T14:48:03;30.60;42.40
46139;DHT22;32398;49.112;8.598;2023-06-10T14:50:30;30.60;42.30
46139;DHT22;32398;49.112;8.598;2023-06-10T14:52:57;30.60;42.50
46139;DHT22;32398;49.112;8.598;2023-06-10T14:55:24;30.70;42.80
46139;DHT22;32398;49.112;8.598;2023-06-10T14:57:52;30.70;42.50
46139;DHT22;32398;49.112;8.598;2023-06-10T15:00:19;30.80;42.70
46139;DHT22;32398;49.112;8.598;2023-06-10T15:02:48;30.90;42.50
46139;DHT22;32398;49.112;8.598;2023-06-10T15:05:15;30.90;42.10
46139;DHT22;32398;49.112;8.598;2023-06-10T15:07:42;31.00;42.20
46139;DHT22;32398;49.112;8.598;2023-06-10T15:10:08;31.00;42.30
46139;DHT22;32398;49.112;8.598;2023-06-10T15:12:35;31.00;41.80
46139;DHT22;32398;49.112;8.598;2023-06-10T15:15:03;31.10;41.80
46139;DHT22;32398;49.112;8.598;2023-06-10T15:17:30;31.10;41.80
46139;DHT22;32398;49.112;8.598;2023-06-10T15:19:57;31.10;41.80
46139;DHT22;32398;49.112;8.598;2023-06-10T15:22:23;31.20;41.80
46139;DHT22;32398;49.112;8.598;2023-06-10T15:24:50;31.20;41.30
46139;DHT22;32398;49.112;8.598;2023-06-10T15:27:16;31.20;40.60
46139;DHT22;32398;49.112;8.598;2023-06-10T15:29:43;31.20;40.40
46139;DHT22;32398;49.112;8.598;2023-06-10T15:32:11;31.30;40.80